Aviation Digital Data Service (ADDS)

Output produced by METARs form (1318 UTC 14 December 2017)
found at http://aviationweather.gov/adds/metars/
 
KEWR 141233Z 1413/1518 36008KT 2SM -SN OVC015 
     TEMPO 1413/1414 1SM -SN BKN007 
     FM141500 35008G16KT P6SM BKN014 
     TEMPO 1415/1416 2SM -SN 
     FM142000 31009G18KT P6SM SCT060 
     FM150000 31010KT P6SM FEW230 
     FM151300 25005KT P6SM OVC200